createdAt,value
2019-05-10T00:01:54.456Z,10.70
2019-05-10T00:04:41.987Z,10.70
2019-05-10T00:07:29.170Z,10.70
2019-05-10T00:09:57.958Z,10.70
2019-05-10T00:12:41.198Z,10.70
2019-05-10T00:15:11.591Z,10.70
2019-05-10T00:17:41.037Z,10.60
2019-05-10T00:20:10.587Z,10.60
2019-05-10T00:22:40.030Z,10.60
2019-05-10T00:25:09.673Z,10.60
2019-05-10T00:27:39.210Z,10.60
2019-05-10T00:30:08.913Z,10.70
2019-05-10T00:32:38.433Z,10.60
2019-05-10T00:35:07.967Z,10.60
2019-05-10T00:37:37.422Z,10.60
2019-05-10T00:40:07.447Z,10.60
2019-05-10T00:42:36.889Z,10.50
2019-05-10T00:45:07.992Z,10.50
2019-05-10T00:47:37.370Z,10.60
2019-05-10T00:50:06.985Z,10.50
2019-05-10T00:52:36.432Z,10.50
2019-05-10T00:55:18.488Z,10.50
2019-05-10T00:57:38.521Z,10.50
2019-05-10T01:00:08.434Z,10.50
2019-05-10T01:02:37.889Z,10.50
2019-05-10T01:05:07.513Z,10.50
2019-05-10T01:07:36.961Z,10.50
2019-05-10T01:10:07.494Z,10.50
2019-05-10T01:12:37.088Z,10.50
2019-05-10T01:15:08.226Z,10.50
2019-05-10T01:17:38.646Z,10.40
2019-05-10T01:20:08.561Z,10.40
2019-05-10T01:22:38.037Z,10.40
2019-05-10T01:25:07.850Z,10.40
2019-05-10T01:27:37.317Z,10.40
2019-05-10T01:30:07.204Z,10.50
2019-05-10T01:32:36.749Z,10.40
2019-05-10T01:35:07.362Z,10.50
2019-05-10T01:37:36.830Z,10.50
2019-05-10T01:40:06.717Z,10.50
2019-05-10T01:42:36.189Z,10.50
2019-05-10T01:45:07.177Z,10.50
2019-05-10T01:47:36.653Z,10.50
2019-05-10T01:50:07.951Z,10.50
2019-05-10T01:52:37.444Z,10.50
2019-05-10T01:55:08.698Z,10.50
2019-05-10T01:57:38.173Z,10.60
2019-05-10T02:00:09.567Z,10.60
2019-05-10T02:02:39.211Z,10.60
2019-05-10T02:05:09.101Z,10.60
2019-05-10T02:07:38.584Z,10.60
2019-05-10T02:10:09.471Z,10.60
2019-05-10T02:12:38.955Z,10.60
2019-05-10T02:15:08.640Z,10.60
2019-05-10T02:17:38.119Z,10.60
2019-05-10T02:20:07.905Z,10.60
2019-05-10T02:22:37.379Z,10.60
2019-05-10T02:25:07.169Z,10.60
2019-05-10T02:27:36.643Z,10.60
2019-05-10T02:30:07.127Z,10.60
2019-05-10T02:32:37.579Z,10.60
2019-05-10T02:35:07.780Z,10.60
2019-05-10T02:37:37.241Z,10.50
2019-05-10T02:40:07.039Z,10.50
2019-05-10T02:42:36.514Z,10.50
2019-05-10T02:45:09.786Z,10.40
2019-05-10T02:47:39.265Z,10.30
2019-05-10T02:50:09.476Z,10.30
2019-05-10T02:52:38.933Z,10.20
2019-05-10T02:55:08.925Z,10.20
2019-05-10T02:57:38.407Z,10.10
2019-05-10T03:00:08.397Z,10.10
2019-05-10T03:02:38.612Z,10.10
2019-05-10T03:05:08.206Z,10.20
2019-05-10T03:07:38.786Z,10.20
2019-05-10T03:10:11.281Z,10.30
2019-05-10T03:12:41.645Z,10.30
2019-05-10T03:15:12.642Z,10.30
2019-05-10T03:17:42.186Z,10.30
2019-05-10T03:20:12.298Z,10.30
2019-05-10T03:22:42.687Z,10.20
2019-05-10T03:25:14.372Z,10.20
2019-05-10T03:27:44.314Z,10.20
2019-05-10T03:30:14.024Z,10.20
2019-05-10T03:32:43.580Z,10.20
2019-05-10T03:35:13.104Z,10.20
2019-05-10T03:37:42.627Z,10.20
2019-05-10T03:40:12.423Z,10.20
2019-05-10T03:42:41.899Z,10.10
2019-05-10T03:45:11.591Z,10.00
2019-05-10T03:47:41.056Z,9.90
2019-05-10T03:50:12.443Z,9.80
2019-05-10T03:52:41.927Z,9.80
2019-05-10T03:55:11.374Z,9.70
2019-05-10T03:57:40.821Z,9.70
2019-05-10T04:00:13.426Z,9.60
2019-05-10T04:02:42.874Z,9.60
2019-05-10T04:05:12.891Z,9.60
2019-05-10T04:07:42.337Z,9.60
2019-05-10T04:10:11.935Z,9.70
2019-05-10T04:12:41.407Z,9.60
2019-05-10T04:15:11.494Z,9.60
2019-05-10T04:17:40.938Z,9.60
2019-05-10T04:20:10.741Z,9.50
2019-05-10T04:22:40.190Z,9.50
2019-05-10T04:25:09.809Z,9.60
2019-05-10T04:27:39.246Z,9.70
2019-05-10T04:30:09.751Z,9.80
2019-05-10T04:32:39.201Z,9.90
2019-05-10T04:35:08.915Z,10.00
2019-05-10T04:37:38.382Z,10.10
2019-05-10T04:40:09.305Z,10.10
2019-05-10T04:42:38.746Z,10.10
2019-05-10T04:45:09.058Z,10.20
2019-05-10T04:47:38.516Z,10.10
2019-05-10T04:50:08.228Z,10.10
2019-05-10T04:52:37.677Z,10.10
2019-05-10T04:55:07.489Z,10.10
2019-05-10T04:57:49.822Z,10.10
2019-05-10T05:00:09.174Z,10.00
2019-05-10T05:02:38.803Z,10.00
2019-05-10T05:05:08.451Z,10.10
2019-05-10T05:07:37.910Z,10.00
2019-05-10T05:10:08.074Z,9.90
2019-05-10T05:12:40.498Z,9.80
2019-05-10T05:15:10.083Z,9.80
2019-05-10T05:17:39.528Z,9.80
2019-05-10T05:20:09.070Z,9.70
2019-05-10T05:22:38.524Z,9.70
2019-05-10T05:25:08.238Z,9.70
2019-05-10T05:27:37.689Z,9.70
2019-05-10T05:30:07.803Z,9.80
2019-05-10T05:32:38.607Z,9.80
2019-05-10T05:35:08.481Z,9.70
2019-05-10T05:37:38.998Z,9.70
2019-05-10T05:40:10.007Z,9.70
2019-05-10T05:42:39.445Z,9.60
2019-05-10T05:45:10.466Z,9.60
2019-05-10T05:47:42.160Z,9.70
2019-05-10T05:50:11.451Z,9.70
2019-05-10T05:52:40.920Z,9.70
2019-05-10T05:55:10.573Z,9.70
2019-05-10T05:57:40.002Z,9.70
2019-05-10T06:00:10.515Z,9.70
2019-05-10T06:02:44.737Z,9.70
2019-05-10T06:05:11.218Z,9.70
2019-05-10T06:07:40.665Z,9.70
2019-05-10T06:10:16.887Z,9.70
2019-05-10T06:12:44.534Z,9.70
2019-05-10T06:15:12.678Z,9.70
2019-05-10T06:17:42.135Z,9.60
2019-05-10T06:20:12.030Z,9.60
2019-05-10T06:22:43.812Z,9.70
2019-05-10T06:25:12.680Z,9.70
2019-05-10T06:27:43.279Z,9.90
2019-05-10T06:30:12.997Z,9.90
2019-05-10T06:32:42.446Z,9.90
2019-05-10T06:35:14.083Z,9.90
2019-05-10T06:37:43.141Z,9.90
2019-05-10T06:40:12.842Z,9.80
2019-05-10T06:42:42.294Z,9.90
2019-05-10T06:45:14.753Z,9.90
2019-05-10T06:47:47.692Z,9.90
2019-05-10T06:50:15.486Z,9.90
2019-05-10T06:52:44.952Z,9.90
2019-05-10T06:55:14.553Z,9.90
2019-05-10T06:57:43.997Z,10.00
2019-05-10T07:00:13.809Z,10.00
2019-05-10T07:02:43.261Z,10.00
2019-05-10T07:05:12.802Z,10.10
2019-05-10T07:07:44.734Z,10.00
2019-05-10T07:10:19.208Z,10.00
2019-05-10T07:12:45.485Z,10.00
2019-05-10T07:15:16.269Z,9.90
2019-05-10T07:17:47.205Z,9.90
2019-05-10T07:20:16.987Z,9.90
2019-05-10T07:22:46.517Z,9.90
2019-05-10T07:25:16.073Z,9.90
2019-05-10T07:27:45.529Z,9.90
2019-05-10T07:30:18.078Z,9.90
2019-05-10T07:32:48.597Z,10.10
2019-05-10T07:35:18.073Z,10.20
2019-05-10T07:37:51.421Z,10.30
2019-05-10T07:40:18.639Z,10.20
2019-05-10T07:42:48.098Z,10.10
2019-05-10T07:45:18.936Z,10.10
2019-05-10T07:47:48.723Z,10.10
2019-05-10T07:50:18.815Z,10.10
2019-05-10T07:52:48.286Z,10.10
2019-05-10T07:55:24.138Z,10.00
2019-05-10T07:57:48.841Z,10.00
2019-05-10T08:00:18.354Z,10.10
2019-05-10T08:02:51.224Z,10.10
2019-05-10T08:05:19.042Z,10.20
2019-05-10T08:07:49.554Z,10.30
2019-05-10T08:10:21.557Z,10.30
2019-05-10T08:12:50.246Z,10.50
2019-05-10T08:15:24.618Z,10.60
2019-05-10T08:17:51.529Z,10.90
2019-05-10T08:20:37.169Z,11.00
2019-05-10T08:22:53.042Z,11.20
2019-05-10T08:25:23.032Z,11.20
2019-05-10T08:27:55.405Z,11.10
2019-05-10T08:30:51.896Z,11.10
2019-05-10T08:33:14.647Z,11.10
2019-05-10T08:35:46.464Z,11.20
2019-05-10T08:38:15.529Z,11.50
2019-05-10T08:40:44.983Z,11.70
2019-05-10T08:43:16.804Z,11.50
2019-05-10T08:45:49.374Z,11.40
2019-05-10T08:48:16.691Z,11.50
2019-05-10T08:50:55.992Z,11.40
2019-05-10T08:53:17.222Z,11.50
2019-05-10T08:55:46.682Z,11.90
2019-05-10T08:58:23.966Z,12.30
2019-05-10T09:00:55.128Z,12.20
2019-05-10T09:03:18.803Z,12.10
2019-05-10T09:05:48.241Z,12.00
2019-05-10T09:08:20.405Z,12.10
2019-05-10T09:10:48.782Z,12.20
2019-05-10T09:13:18.246Z,12.30
2019-05-10T09:15:51.977Z,12.50
2019-05-10T09:18:18.858Z,12.50
2019-05-10T09:20:48.305Z,12.40
2019-05-10T09:23:19.992Z,12.30
2019-05-10T09:25:48.845Z,12.10
2019-05-10T09:28:18.314Z,12.00
2019-05-10T09:30:59.349Z,11.90
2019-05-10T09:33:18.849Z,12.10
2019-05-10T09:35:52.333Z,12.20
2019-05-10T09:38:19.382Z,12.30
2019-05-10T09:40:52.782Z,12.40
2019-05-10T09:43:23.573Z,12.30
2019-05-10T09:45:53.041Z,12.00
2019-05-10T09:48:23.140Z,12.00
2019-05-10T09:50:55.901Z,11.90
2019-05-10T09:53:27.491Z,11.80
2019-05-10T09:56:01.739Z,11.80
2019-05-10T09:58:28.463Z,11.80
2019-05-10T10:01:12.851Z,12.00
2019-05-10T10:03:30.042Z,12.40
2019-05-10T10:06:05.187Z,12.50
2019-05-10T10:08:30.326Z,12.60
2019-05-10T10:11:10.172Z,12.50
2019-05-10T10:13:39.519Z,12.40
2019-05-10T10:16:04.050Z,12.50
2019-05-10T10:18:33.091Z,13.10
2019-05-10T10:21:02.529Z,13.50
2019-05-10T10:23:34.906Z,13.20
2019-05-10T10:26:03.062Z,13.40
2019-05-10T10:28:32.522Z,13.30
2019-05-10T10:31:05.156Z,13.10
2019-05-10T10:33:33.704Z,13.30
2019-05-10T10:36:07.284Z,12.90
2019-05-10T10:38:39.726Z,12.90
2019-05-10T10:41:08.227Z,13.10
2019-05-10T10:43:37.882Z,13.30
2019-05-10T10:46:12.166Z,13.20
2019-05-10T10:48:38.590Z,13.00
2019-05-10T10:51:08.221Z,12.50
2019-05-10T10:53:37.774Z,12.20
2019-05-10T10:56:07.835Z,12.10
2019-05-10T10:58:37.358Z,12.00
2019-05-10T11:01:20.221Z,12.00
2019-05-10T11:03:39.122Z,12.40
2019-05-10T11:06:08.570Z,12.60
2019-05-10T11:08:38.038Z,12.90
2019-05-10T11:11:07.486Z,13.20
2019-05-10T11:13:43.975Z,14.00
2019-05-10T11:16:11.070Z,13.70
2019-05-10T11:18:41.668Z,13.90
2019-05-10T11:21:11.289Z,14.10
2019-05-10T11:23:41.917Z,13.70
2019-05-10T11:26:11.663Z,13.80
2019-05-10T11:28:44.116Z,14.40
2019-05-10T11:31:12.181Z,14.90
2019-05-10T11:33:41.831Z,14.80
2019-05-10T11:36:12.782Z,14.70
2019-05-10T11:38:42.271Z,14.60
2019-05-10T11:41:21.240Z,14.40
2019-05-10T11:43:45.558Z,14.90
2019-05-10T11:46:15.007Z,15.10
2019-05-10T11:48:44.490Z,14.80
2019-05-10T11:51:17.436Z,15.00
2019-05-10T11:53:48.955Z,14.60
2019-05-10T11:56:16.113Z,15.00
2019-05-10T11:58:52.511Z,14.90
2019-05-10T12:01:19.439Z,15.10
2019-05-10T12:03:47.961Z,15.10
2019-05-10T12:06:17.448Z,14.70
2019-05-10T12:08:46.877Z,14.60
2019-05-10T12:11:31.887Z,14.50
2019-05-10T12:13:47.419Z,14.10
2019-05-10T12:16:17.268Z,14.00
2019-05-10T12:19:02.317Z,14.20
2019-05-10T12:21:18.425Z,14.40
2019-05-10T12:23:51.897Z,14.80
2019-05-10T12:28:51.071Z,15.70
2019-05-10T12:31:23.122Z,15.20
2019-05-10T12:33:51.762Z,15.30
2019-05-10T12:36:26.017Z,15.60
2019-05-10T12:38:52.288Z,16.10
2019-05-10T12:41:23.438Z,15.90
2019-05-10T12:44:02.952Z,15.70
2019-05-10T12:46:24.097Z,15.30
2019-05-10T12:48:53.538Z,14.70
2019-05-10T12:51:23.011Z,14.60
2019-05-10T12:53:52.455Z,15.40
2019-05-10T12:56:21.927Z,16.60
2019-05-10T12:58:56.715Z,16.60
2019-05-10T13:01:25.410Z,16.40
2019-05-10T13:03:53.525Z,16.00
2019-05-10T13:06:22.990Z,15.90
2019-05-10T13:08:52.438Z,15.20
2019-05-10T13:11:25.579Z,15.60
2019-05-10T13:13:52.966Z,14.80
2019-05-10T13:16:22.441Z,15.00
2019-05-10T13:18:52.709Z,15.00
2019-05-10T13:21:23.143Z,14.80
2019-05-10T13:23:53.919Z,14.50
2019-05-10T13:26:23.782Z,14.80
2019-05-10T13:28:53.223Z,15.60
2019-05-10T13:31:22.692Z,16.00
2019-05-10T13:33:52.136Z,15.20
2019-05-10T13:36:21.637Z,15.00
2019-05-10T13:38:51.085Z,15.30
2019-05-10T13:41:24.523Z,14.70
2019-05-10T13:43:51.609Z,14.90
2019-05-10T13:46:21.084Z,15.30
2019-05-10T13:48:50.529Z,15.10
2019-05-10T13:51:20.004Z,15.80
2019-05-10T13:53:53.797Z,16.10
2019-05-10T13:56:20.537Z,16.60
2019-05-10T13:58:49.980Z,17.50
2019-05-10T14:01:19.455Z,16.80
2019-05-10T14:04:00.064Z,17.10
2019-05-10T14:06:19.994Z,17.40
2019-05-10T14:08:50.493Z,17.00
2019-05-10T14:11:21.674Z,17.10
2019-05-10T14:13:52.036Z,18.00
2019-05-10T14:16:22.563Z,16.80
2019-05-10T14:18:52.251Z,16.50
2019-05-10T14:21:21.709Z,16.10
2019-05-10T14:23:51.157Z,16.20
2019-05-10T14:26:20.630Z,15.90
2019-05-10T14:28:52.987Z,15.50
2019-05-10T14:31:21.291Z,15.30
2019-05-10T14:34:14.229Z,15.20
2019-05-10T14:36:21.837Z,15.00
2019-05-10T14:38:53.758Z,15.00
2019-05-10T14:41:22.369Z,15.20
2019-05-10T14:43:51.815Z,15.80
2019-05-10T14:46:21.279Z,16.30
2019-05-10T14:48:50.731Z,16.50
2019-05-10T14:51:20.207Z,16.00
2019-05-10T14:53:49.649Z,15.60
2019-05-10T14:56:19.113Z,15.40
2019-05-10T14:58:48.599Z,15.30
2019-05-10T15:01:18.043Z,15.10
2019-05-10T15:03:47.613Z,14.60
2019-05-10T15:06:17.036Z,14.50
2019-05-10T15:08:46.499Z,14.70
2019-05-10T15:11:15.958Z,14.80
2019-05-10T15:13:45.402Z,15.40
2019-05-10T15:16:25.750Z,15.70
2019-05-10T15:18:46.213Z,15.80
2019-05-10T15:21:15.680Z,15.50
2019-05-10T15:23:45.149Z,15.90
2019-05-10T15:26:14.603Z,15.90
2019-05-10T15:28:44.064Z,16.60
2019-05-10T15:31:14.280Z,16.20
2019-05-10T15:33:43.765Z,15.80
2019-05-10T15:36:13.190Z,16.00
2019-05-10T15:38:50.039Z,16.00
2019-05-10T15:41:16.898Z,15.30
2019-05-10T15:43:48.968Z,15.00
2019-05-10T15:46:15.881Z,14.60
2019-05-10T15:48:45.348Z,14.40
2019-05-10T15:51:16.766Z,15.20
2019-05-10T15:53:45.869Z,15.60
2019-05-10T15:56:15.305Z,15.40
2019-05-10T15:58:44.790Z,15.10
2019-05-10T16:01:14.741Z,15.10
2019-05-10T16:03:44.298Z,15.00
2019-05-10T16:06:13.741Z,15.50
2019-05-10T16:08:43.211Z,17.00
2019-05-10T16:11:18.792Z,17.00
2019-05-10T16:13:43.738Z,15.80
2019-05-10T16:16:13.190Z,15.00
2019-05-10T16:18:42.657Z,14.80
2019-05-10T16:21:15.050Z,14.50
2019-05-10T16:23:46.546Z,14.20
2019-05-10T16:26:17.464Z,14.10
2019-05-10T16:28:46.439Z,13.90
2019-05-10T16:31:15.885Z,13.80
2019-05-10T16:33:48.173Z,13.90
2019-05-10T16:36:16.422Z,14.00
2019-05-10T16:38:45.885Z,14.00
2019-05-10T16:41:15.339Z,14.20
2019-05-10T16:43:44.806Z,14.20
2019-05-10T16:46:14.446Z,14.50
2019-05-10T16:48:43.929Z,14.70
2019-05-10T16:51:13.377Z,15.00
2019-05-10T16:53:45.857Z,15.50
2019-05-10T16:56:19.070Z,16.20
2019-05-10T16:58:47.777Z,16.10
2019-05-10T17:01:18.813Z,15.70
2019-05-10T17:03:51.119Z,15.20
2019-05-10T17:06:18.246Z,14.60
2019-05-10T17:08:47.723Z,14.40
2019-05-10T17:11:17.177Z,14.10
2019-05-10T17:13:46.632Z,13.70
2019-05-10T17:16:18.849Z,13.50
2019-05-10T17:18:49.889Z,13.50
2019-05-10T17:21:18.238Z,13.50
2019-05-10T17:23:48.617Z,13.50
2019-05-10T17:26:18.149Z,13.50
2019-05-10T17:28:48.699Z,13.60
2019-05-10T17:31:18.140Z,13.60
2019-05-10T17:33:47.596Z,13.70
2019-05-10T17:36:19.737Z,13.80
2019-05-10T17:38:53.383Z,13.80
2019-05-10T17:41:19.609Z,13.50
2019-05-10T17:43:50.331Z,13.20
2019-05-10T17:46:20.867Z,13.10
2019-05-10T17:48:50.618Z,12.90
2019-05-10T17:51:20.084Z,12.80
2019-05-10T17:53:54.826Z,12.70
2019-05-10T17:56:20.665Z,12.70
2019-05-10T17:58:50.197Z,12.70
2019-05-10T18:01:19.650Z,12.60
2019-05-10T18:03:49.121Z,12.60
2019-05-10T18:06:23.861Z,12.60
2019-05-10T18:08:49.649Z,12.60
2019-05-10T18:11:19.097Z,12.50
2019-05-10T18:13:48.581Z,12.50
2019-05-10T18:16:18.024Z,12.50
2019-05-10T18:18:48.527Z,12.40
2019-05-10T18:21:22.057Z,12.40
2019-05-10T18:23:52.808Z,12.50
2019-05-10T18:26:21.274Z,12.50
2019-05-10T18:28:50.721Z,12.50
2019-05-10T18:31:20.190Z,12.40
2019-05-10T18:33:54.139Z,12.30
2019-05-10T18:36:26.727Z,12.20
2019-05-10T18:38:51.801Z,12.10
2019-05-10T18:41:21.278Z,12.10
2019-05-10T18:43:50.723Z,11.90
2019-05-10T18:46:20.177Z,11.80
2019-05-10T18:48:49.622Z,11.70
2019-05-10T18:51:24.340Z,11.50
2019-05-10T18:53:50.157Z,11.30
2019-05-10T18:56:25.367Z,11.10
2019-05-10T18:58:50.693Z,11.00
2019-05-10T19:01:20.159Z,10.90
2019-05-10T19:03:49.609Z,10.80
2019-05-10T19:06:19.091Z,10.70
2019-05-10T19:08:48.525Z,10.50
2019-05-10T19:11:18.095Z,10.40
2019-05-10T19:13:53.397Z,10.30
2019-05-10T19:16:18.638Z,10.30
2019-05-10T19:18:48.090Z,10.30
2019-05-10T19:21:17.625Z,10.30
2019-05-10T19:23:52.166Z,10.30
2019-05-10T19:26:18.162Z,10.40
2019-05-10T19:28:47.609Z,10.30
2019-05-10T19:31:17.069Z,10.30
2019-05-10T19:33:46.594Z,10.10
2019-05-10T19:36:16.067Z,10.10
2019-05-10T19:38:45.497Z,10.10
2019-05-10T19:41:20.289Z,10.20
2019-05-10T19:43:49.543Z,10.20
2019-05-10T19:46:17.122Z,10.20
2019-05-10T19:48:46.575Z,10.20
2019-05-10T19:51:16.039Z,10.10
2019-05-10T19:53:45.486Z,10.10
2019-05-10T19:56:14.957Z,10.00
2019-05-10T19:58:44.417Z,10.00
2019-05-10T20:01:13.891Z,10.00
2019-05-10T20:03:44.522Z,9.90
2019-05-10T20:06:13.984Z,10.00
2019-05-10T20:08:43.437Z,10.00
2019-05-10T20:11:12.899Z,10.10
2019-05-10T20:13:42.341Z,10.10
2019-05-10T20:16:11.824Z,10.20
2019-05-10T20:18:41.258Z,10.10
2019-05-10T20:21:10.725Z,10.10
2019-05-10T20:23:40.183Z,10.10
2019-05-10T20:26:09.648Z,10.20
2019-05-10T20:28:39.098Z,10.10
2019-05-10T20:31:08.918Z,10.10
2019-05-10T20:33:38.365Z,10.00
2019-05-10T20:36:07.838Z,10.00
2019-05-10T20:38:37.290Z,10.00
2019-05-10T20:41:06.902Z,9.90
2019-05-10T20:43:36.389Z,9.90
2019-05-10T20:46:07.206Z,10.00
2019-05-10T20:48:37.846Z,9.90
2019-05-10T20:51:07.322Z,10.00
2019-05-10T20:53:36.769Z,10.00
2019-05-10T20:56:06.234Z,9.90
2019-05-10T20:58:35.674Z,9.90
2019-05-10T21:01:05.153Z,9.90
2019-05-10T21:03:34.658Z,9.90
2019-05-10T21:06:04.113Z,9.90
2019-05-10T21:08:33.557Z,9.90
2019-05-10T21:11:03.042Z,9.90
2019-05-10T21:13:32.469Z,9.90
2019-05-10T21:16:02.006Z,9.90
2019-05-10T21:18:31.445Z,9.80
2019-05-10T21:21:00.914Z,9.70
2019-05-10T21:23:30.376Z,9.70
2019-05-10T21:25:59.833Z,9.70
2019-05-10T21:28:29.273Z,9.70
2019-05-10T21:30:58.745Z,9.70
2019-05-10T21:33:28.189Z,9.70
2019-05-10T21:35:57.682Z,9.70
2019-05-10T21:38:32.885Z,9.80
2019-05-10T21:40:58.251Z,9.80
2019-05-10T21:43:27.698Z,9.90
2019-05-10T21:45:57.141Z,9.70
2019-05-10T21:48:26.618Z,9.60
2019-05-10T21:50:56.603Z,9.50
2019-05-10T21:53:26.068Z,9.40
2019-05-10T21:55:55.505Z,9.30
2019-05-10T21:58:24.977Z,9.30
2019-05-10T22:00:54.494Z,9.20
2019-05-10T22:03:25.578Z,9.30
2019-05-10T22:05:55.042Z,9.20
2019-05-10T22:08:24.505Z,9.20
2019-05-10T22:10:53.968Z,9.30
2019-05-10T22:13:23.506Z,9.30
2019-05-10T22:15:52.954Z,9.30
2019-05-10T22:18:22.429Z,9.40
2019-05-10T22:20:51.878Z,9.40
2019-05-10T22:23:21.366Z,9.50
2019-05-10T22:25:50.799Z,9.50
2019-05-10T22:28:20.266Z,9.60
2019-05-10T22:30:49.710Z,9.80
2019-05-10T22:33:19.181Z,9.90
2019-05-10T22:35:48.629Z,10.00
2019-05-10T22:38:18.107Z,10.10
2019-05-10T22:40:47.573Z,10.10
2019-05-10T22:43:17.057Z,10.10
2019-05-10T22:45:46.531Z,10.00
2019-05-10T22:48:16.003Z,9.90
2019-05-10T22:50:45.450Z,9.80
2019-05-10T22:53:14.918Z,9.80
2019-05-10T22:55:44.365Z,9.80
2019-05-10T22:58:13.835Z,9.70
2019-05-10T23:00:43.556Z,9.60
2019-05-10T23:03:13.021Z,9.50
2019-05-10T23:05:42.478Z,9.40
2019-05-10T23:08:11.946Z,9.40
2019-05-10T23:10:41.462Z,9.30
2019-05-10T23:13:10.934Z,9.20
2019-05-10T23:15:40.382Z,9.20
2019-05-10T23:18:09.853Z,9.20
2019-05-10T23:20:39.293Z,9.00
2019-05-10T23:23:08.759Z,8.90
2019-05-10T23:25:38.209Z,8.90
2019-05-10T23:28:07.678Z,8.80
2019-05-10T23:30:37.122Z,8.80
2019-05-10T23:33:06.585Z,8.70
2019-05-10T23:35:37.002Z,8.60
2019-05-10T23:38:06.504Z,8.50
2019-05-10T23:40:35.923Z,8.40
2019-05-10T23:43:05.459Z,8.30
2019-05-10T23:45:34.909Z,8.30
2019-05-10T23:48:04.384Z,8.30
2019-05-10T23:50:33.828Z,8.30
2019-05-10T23:53:03.302Z,8.30
2019-05-10T23:55:32.741Z,8.30
2019-05-10T23:58:03.282Z,8.30
